Country
Station

 

Weather  for  Oklahoma City, Wiley Post Airport  -  United States    United States

  
27 °C (81 °F)
    
 
 

Current METAR for Oklahoma City, Wiley Post Airport is :

KPWA 171053Z AUTO 11004KT 10SM CLR 27/23 A2999 RMK AO2 SLP137 T02670228

 

This is a report for Oklahoma City, Wiley Post Airport - United States.
 
The report was made 43 minutes ago, at 10:53 UTC .
The wind was blowing at a speed of 2.1 meters per second (4.6 miles per hour) from east/southeast (110°).
 
The temperature was 27 °C (81 °F), with a dew-point at 23 °C (73 °F).
The temperature felt like 30 °C (86 °F).
 
The atmospheric pressure was 1016 hPa (29.99 inHg).
The relative humidity was 78.8%.
 
The sky was clear.
 
The overall visibility was 16.1 kilometers (10.0 miles).
 

 
 
 
 

Country :   A   B   C   D   E   F   G   H   I   J   K   L   M   N   O   P   Q   R   S   T   U   V   W   Y   Z

 

Site Info  |  Disclaimer  |  Credits  |  Privacy
Contact us  |  Add to favorites
© 2013-2018 METARs - All rights reserved